createdAt,value
2019-04-29T00:01:03.041Z,99.90
2019-04-29T00:03:40.813Z,99.90
2019-04-29T00:06:17.605Z,99.90
2019-04-29T00:08:43.153Z,99.90
2019-04-29T00:11:21.799Z,99.90
2019-04-29T00:13:53.456Z,99.90
2019-04-29T00:17:00.741Z,99.90
2019-04-29T00:19:54.423Z,99.90
2019-04-29T00:22:26.887Z,99.90
2019-04-29T00:25:16.190Z,99.90
2019-04-29T00:27:47.223Z,99.90
2019-04-29T00:30:27.031Z,99.90
2019-04-29T00:33:02.996Z,99.90
2019-04-29T00:35:37.133Z,99.90
2019-04-29T00:38:33.764Z,99.90
2019-04-29T00:41:31.451Z,99.90
2019-04-29T00:44:03.538Z,99.90
2019-04-29T00:46:38.910Z,99.90
2019-04-29T00:49:10.224Z,99.90
2019-04-29T00:51:45.544Z,99.90
2019-04-29T00:54:40.294Z,99.90
2019-04-29T00:57:12.987Z,99.90
2019-04-29T00:59:42.650Z,99.90
2019-04-29T01:02:15.363Z,99.90
2019-04-29T01:04:55.392Z,99.90
2019-04-29T01:07:27.151Z,99.90
2019-04-29T01:10:00.001Z,99.90
2019-04-29T01:12:38.086Z,99.90
2019-04-29T01:15:19.279Z,99.90
2019-04-29T01:17:56.682Z,99.90
2019-04-29T01:20:29.586Z,99.90
2019-04-29T01:23:05.607Z,99.90
2019-04-29T01:25:44.342Z,99.90
2019-04-29T01:28:28.256Z,99.90
2019-04-29T01:31:25.385Z,99.90
2019-04-29T01:34:01.762Z,99.90
2019-04-29T01:36:45.259Z,99.90
2019-04-29T01:39:21.054Z,99.90
2019-04-29T01:42:01.124Z,99.90
2019-04-29T01:44:35.776Z,99.90
2019-04-29T01:47:18.078Z,99.90
2019-04-29T01:49:51.671Z,99.90
2019-04-29T01:52:22.378Z,99.90
2019-04-29T01:54:55.950Z,99.90
2019-04-29T01:57:31.780Z,99.90
2019-04-29T02:00:08.438Z,99.90
2019-04-29T02:02:40.205Z,99.90
2019-04-29T02:05:12.156Z,99.90
2019-04-29T02:07:46.878Z,99.90
2019-04-29T02:10:28.179Z,99.90
2019-04-29T02:13:01.564Z,99.90
2019-04-29T02:15:36.072Z,99.90
2019-04-29T02:18:17.901Z,99.90
2019-04-29T02:20:49.357Z,99.90
2019-04-29T02:23:26.185Z,99.90
2019-04-29T02:25:56.995Z,99.90
2019-04-29T02:28:28.034Z,99.90
2019-04-29T02:31:02.640Z,99.90
2019-04-29T02:33:33.454Z,99.90
2019-04-29T02:36:06.676Z,99.90
2019-04-29T02:38:48.794Z,99.90
2019-04-29T02:41:42.347Z,99.90
2019-04-29T02:44:15.108Z,99.90
2019-04-29T02:46:49.879Z,99.90
2019-04-29T02:49:19.217Z,99.90
2019-04-29T02:51:53.589Z,99.90
2019-04-29T02:54:24.786Z,99.90
2019-04-29T02:57:02.682Z,99.90
2019-04-29T02:59:41.780Z,99.90
2019-04-29T03:02:20.574Z,99.90
2019-04-29T03:05:14.503Z,99.90
2019-04-29T03:07:49.085Z,99.90
2019-04-29T03:10:18.877Z,99.90
2019-04-29T03:12:55.124Z,99.90
2019-04-29T03:15:43.381Z,99.90
2019-04-29T03:18:28.883Z,99.90
2019-04-29T03:21:08.978Z,99.90
2019-04-29T03:23:43.913Z,99.90
2019-04-29T03:26:19.203Z,99.90
2019-04-29T03:28:52.940Z,99.90
2019-04-29T03:31:27.773Z,99.90
2019-04-29T03:33:59.937Z,99.90
2019-04-29T03:36:32.144Z,99.90
2019-04-29T03:39:05.934Z,99.90
2019-04-29T03:41:42.070Z,99.90
2019-04-29T03:44:38.865Z,99.90
2019-04-29T03:47:21.404Z,99.90
2019-04-29T03:49:48.801Z,99.90
2019-04-29T03:52:20.046Z,99.90
2019-04-29T03:54:54.017Z,99.90
2019-04-29T03:57:28.214Z,99.90
2019-04-29T04:00:03.502Z,99.90
2019-04-29T04:02:42.586Z,99.90
2019-04-29T04:05:32.653Z,99.90
2019-04-29T04:08:24.889Z,99.90
2019-04-29T04:10:58.330Z,99.90
2019-04-29T04:13:37.959Z,99.90
2019-04-29T04:16:12.803Z,99.90
2019-04-29T04:18:48.540Z,99.90
2019-04-29T04:21:27.017Z,99.90
2019-04-29T04:24:05.045Z,99.90
2019-04-29T04:26:37.700Z,99.90
2019-04-29T04:29:15.582Z,99.90
2019-04-29T04:31:56.954Z,99.90
2019-04-29T04:34:29.006Z,99.90
2019-04-29T04:37:05.025Z,99.90
2019-04-29T04:39:44.268Z,99.90
2019-04-29T04:42:33.506Z,99.90
2019-04-29T04:45:05.600Z,99.90
2019-04-29T04:48:05.525Z,99.90
2019-04-29T04:50:47.955Z,99.90
2019-04-29T04:53:28.901Z,99.90
2019-04-29T04:55:51.637Z,99.90
2019-04-29T04:58:36.514Z,99.90
2019-04-29T05:01:15.847Z,99.90
2019-04-29T05:03:47.221Z,99.90
2019-04-29T05:06:21.439Z,99.90
2019-04-29T05:09:05.101Z,99.90
2019-04-29T05:11:31.280Z,99.90
2019-04-29T05:14:22.595Z,99.90
2019-04-29T05:20:51.571Z,99.90
2019-04-29T05:24:17.758Z,99.90
2019-04-29T05:26:51.567Z,99.90
2019-04-29T05:29:44.254Z,99.90
2019-04-29T05:32:17.013Z,99.90
2019-04-29T05:40:40.013Z,99.90
2019-04-29T05:43:17.647Z,99.90
2019-04-29T05:46:21.357Z,99.90
2019-04-29T05:52:05.311Z,99.90
2019-04-29T05:54:40.612Z,99.90
2019-04-29T05:57:20.419Z,99.90
2019-04-29T06:00:05.539Z,99.90
2019-04-29T06:02:43.798Z,99.90
2019-04-29T06:05:19.328Z,99.90
2019-04-29T06:08:00.869Z,99.90
2019-04-29T06:10:32.269Z,99.90
2019-04-29T06:13:17.183Z,99.90
2019-04-29T06:15:48.325Z,99.90
2019-04-29T06:18:25.037Z,99.90
2019-04-29T06:21:08.212Z,99.90
2019-04-29T06:23:34.272Z,99.90
2019-04-29T06:26:09.373Z,99.90
2019-04-29T06:28:50.052Z,99.90
2019-04-29T06:31:22.900Z,99.90
2019-04-29T06:34:00.665Z,99.90
2019-04-29T06:36:43.225Z,99.90
2019-04-29T06:39:27.590Z,99.90
2019-04-29T06:44:51.998Z,99.90
2019-04-29T06:47:26.200Z,99.90
2019-04-29T06:50:09.396Z,99.90
2019-04-29T06:52:51.995Z,99.90
2019-04-29T06:55:20.254Z,99.90
2019-04-29T06:57:57.194Z,99.90
2019-04-29T07:00:34.232Z,99.90
2019-04-29T07:03:06.702Z,99.90
2019-04-29T07:05:46.779Z,99.90
2019-04-29T07:08:31.914Z,99.90
2019-04-29T07:11:08.044Z,99.90
2019-04-29T07:13:48.953Z,99.90
2019-04-29T07:16:31.905Z,99.90
2019-04-29T07:19:01.210Z,99.90
2019-04-29T07:21:41.833Z,99.90
2019-04-29T07:27:09.958Z,99.90
2019-04-29T07:30:09.108Z,99.90
2019-04-29T07:32:50.947Z,99.90
2019-04-29T07:43:26.587Z,98.20
2019-04-29T07:46:34.587Z,97.10
2019-04-29T07:49:54.662Z,96.90
2019-04-29T07:52:35.236Z,96.70
2019-04-29T07:56:05.807Z,96.50
2019-04-29T08:02:41.928Z,95.70
2019-04-29T08:05:04.197Z,95.10
2019-04-29T08:07:39.071Z,94.50
2019-04-29T08:10:28.605Z,94.90
2019-04-29T08:13:05.404Z,94.50
2019-04-29T08:15:48.327Z,93.50
2019-04-29T08:18:33.231Z,93.80
2019-04-29T08:21:14.457Z,93.60
2019-04-29T08:23:52.353Z,92.50
2019-04-29T08:26:20.127Z,92.20
2019-04-29T08:29:02.585Z,92.50
2019-04-29T08:31:40.591Z,92.50
2019-04-29T08:34:18.616Z,92.20
2019-04-29T08:40:14.813Z,90.70
2019-04-29T08:42:32.477Z,89.40
2019-04-29T08:45:18.643Z,90.00
2019-04-29T08:47:48.373Z,89.00
2019-04-29T08:50:22.798Z,89.10
2019-04-29T08:52:52.487Z,89.80
2019-04-29T08:55:26.795Z,90.60
2019-04-29T08:58:31.726Z,88.70
2019-04-29T09:00:51.432Z,88.80
2019-04-29T09:03:24.608Z,88.30
2019-04-29T09:06:05.262Z,88.10
2019-04-29T09:08:32.833Z,86.20
2019-04-29T09:11:12.314Z,87.50
2019-04-29T09:13:44.295Z,85.80
2019-04-29T09:16:45.354Z,84.30
2019-04-29T09:19:20.394Z,83.90
2019-04-29T09:21:53.669Z,82.70
2019-04-29T09:24:28.035Z,83.30
2019-04-29T09:27:12.088Z,80.90
2019-04-29T09:29:46.486Z,82.40
2019-04-29T09:32:14.788Z,80.60
2019-04-29T09:34:46.492Z,81.30
2019-04-29T09:37:22.891Z,78.80
2019-04-29T09:39:59.920Z,77.20
2019-04-29T09:42:52.525Z,78.20
2019-04-29T09:45:39.646Z,78.20
2019-04-29T09:48:09.298Z,79.80
2019-04-29T09:50:43.933Z,79.10
2019-04-29T09:53:17.614Z,78.90
2019-04-29T09:56:02.778Z,77.10
2019-04-29T09:58:33.829Z,74.60
2019-04-29T10:01:40.856Z,74.60
2019-04-29T10:04:27.299Z,75.00
2019-04-29T10:07:02.056Z,71.50
2019-04-29T10:09:38.386Z,71.60
2019-04-29T10:12:15.626Z,72.90
2019-04-29T10:15:10.757Z,71.00
2019-04-29T10:18:02.267Z,71.80
2019-04-29T10:21:05.337Z,72.60
2019-04-29T10:23:59.685Z,71.80
2019-04-29T10:26:29.509Z,74.90
2019-04-29T10:29:18.485Z,73.70
2019-04-29T10:32:12.711Z,72.50
2019-04-29T10:35:08.518Z,72.70
2019-04-29T10:37:36.107Z,72.80
2019-04-29T10:40:33.707Z,72.80
2019-04-29T10:43:19.093Z,72.20
2019-04-29T10:46:25.623Z,70.80
2019-04-29T10:49:49.297Z,72.80
2019-04-29T10:52:17.939Z,74.60
2019-04-29T10:54:55.174Z,74.90
2019-04-29T10:57:40.303Z,72.20
2019-04-29T11:00:39.107Z,71.80
2019-04-29T11:03:20.742Z,71.60
2019-04-29T11:06:31.211Z,73.10
2019-04-29T11:08:48.625Z,72.90
2019-04-29T11:11:27.077Z,73.10
2019-04-29T11:17:01.163Z,73.00
2019-04-29T11:23:16.458Z,70.80
2019-04-29T11:26:25.968Z,71.20
2019-04-29T11:29:06.255Z,71.80
2019-04-29T11:31:44.607Z,70.80
2019-04-29T11:34:48.411Z,69.50
2019-04-29T11:37:23.893Z,69.40
2019-04-29T11:40:14.044Z,67.90
2019-04-29T11:42:41.867Z,68.30
2019-04-29T11:45:21.296Z,67.90
2019-04-29T11:47:58.868Z,69.20
2019-04-29T11:50:37.376Z,70.40
2019-04-29T11:53:18.744Z,69.80
2019-04-29T11:55:56.962Z,68.70
2019-04-29T11:58:30.798Z,66.70
2019-04-29T12:01:17.835Z,66.10
2019-04-29T12:04:01.964Z,65.50
2019-04-29T12:06:38.792Z,66.50
2019-04-29T12:09:14.907Z,66.70
2019-04-29T12:11:58.309Z,67.40
2019-04-29T12:14:54.536Z,65.80
2019-04-29T12:17:42.790Z,65.20
2019-04-29T12:20:40.277Z,66.10
2019-04-29T12:23:18.303Z,65.80
2019-04-29T12:26:04.703Z,62.80
2019-04-29T12:28:59.044Z,62.40
2019-04-29T12:31:54.815Z,62.00
2019-04-29T12:34:40.816Z,63.10
2019-04-29T12:38:00.767Z,64.60
2019-04-29T12:41:21.149Z,66.60
2019-04-29T12:44:00.723Z,66.90
2019-04-29T12:46:55.074Z,68.10
2019-04-29T12:49:30.413Z,69.30
2019-04-29T12:52:08.159Z,69.20
2019-04-29T12:54:47.743Z,66.60
2019-04-29T12:57:41.072Z,65.70
2019-04-29T13:00:48.121Z,64.20
2019-04-29T13:03:51.069Z,62.50
2019-04-29T13:07:22.862Z,63.70
2019-04-29T13:10:20.055Z,63.40
2019-04-29T13:12:58.251Z,62.70
2019-04-29T13:15:54.282Z,62.60
2019-04-29T13:18:38.526Z,62.50
2019-04-29T13:21:33.981Z,63.10
2019-04-29T13:24:22.823Z,62.00
2019-04-29T13:26:50.261Z,60.30
2019-04-29T13:29:27.174Z,58.80
2019-04-29T13:31:55.509Z,60.00
2019-04-29T13:35:05.088Z,57.50
2019-04-29T13:37:36.963Z,59.00
2019-04-29T13:42:56.593Z,57.50
2019-04-29T13:49:12.130Z,56.60
2019-04-29T13:51:43.842Z,55.00
2019-04-29T13:54:06.254Z,55.90
2019-04-29T13:56:55.526Z,55.60
2019-04-29T13:59:21.235Z,53.40
2019-04-29T14:02:07.925Z,54.40
2019-04-29T14:04:46.781Z,54.70
2019-04-29T14:07:21.365Z,54.50
2019-04-29T14:09:58.068Z,55.50
2019-04-29T14:13:31.937Z,54.10
2019-04-29T14:15:33.867Z,53.70
2019-04-29T14:18:13.591Z,53.10
2019-04-29T14:20:42.833Z,56.00
2019-04-29T14:23:22.570Z,59.00
2019-04-29T14:25:59.420Z,60.50
2019-04-29T14:28:39.572Z,63.40
2019-04-29T14:31:18.669Z,65.30
2019-04-29T14:34:00.415Z,67.30
2019-04-29T14:36:31.106Z,68.20
2019-04-29T14:39:04.110Z,69.00
2019-04-29T14:41:38.995Z,70.70
2019-04-29T14:44:51.266Z,70.80
2019-04-29T14:47:45.382Z,71.50
2019-04-29T14:50:23.074Z,72.70
2019-04-29T14:52:56.465Z,71.10
2019-04-29T14:55:27.771Z,70.70
2019-04-29T14:58:02.976Z,69.80
2019-04-29T15:00:50.344Z,69.70
2019-04-29T15:03:22.098Z,69.10
2019-04-29T15:05:55.547Z,70.10
2019-04-29T15:08:41.063Z,68.90
2019-04-29T15:11:08.328Z,68.40
2019-04-29T15:13:43.165Z,68.20
2019-04-29T15:16:38.586Z,68.00
2019-04-29T15:19:30.002Z,66.60
2019-04-29T15:22:18.828Z,67.40
2019-04-29T15:24:48.518Z,66.90
2019-04-29T15:27:20.875Z,67.10
2019-04-29T15:29:53.651Z,66.80
2019-04-29T15:32:33.783Z,66.50
2019-04-29T15:35:06.841Z,66.50
2019-04-29T15:37:40.436Z,67.20
2019-04-29T15:40:26.351Z,67.30
2019-04-29T15:42:59.226Z,68.40
2019-04-29T15:45:42.015Z,68.90
2019-04-29T15:48:23.058Z,69.70
2019-04-29T15:50:59.497Z,70.60
2019-04-29T15:53:37.791Z,70.70
2019-04-29T15:56:28.723Z,70.40
2019-04-29T15:58:53.171Z,70.60
2019-04-29T16:01:29.940Z,71.40
2019-04-29T16:04:07.043Z,71.20
2019-04-29T16:07:26.215Z,71.00
2019-04-29T16:10:23.057Z,71.70
2019-04-29T16:13:15.993Z,71.60
2019-04-29T16:15:54.599Z,72.80
2019-04-29T16:18:17.069Z,73.70
2019-04-29T16:20:53.937Z,75.40
2019-04-29T16:23:49.461Z,75.40
2019-04-29T16:26:32.543Z,75.80
2019-04-29T16:29:12.546Z,75.90
2019-04-29T16:31:42.290Z,74.00
2019-04-29T16:34:22.642Z,74.10
2019-04-29T16:37:01.832Z,74.90
2019-04-29T16:39:32.746Z,75.80
2019-04-29T16:42:25.867Z,77.50
2019-04-29T16:45:12.327Z,77.80
2019-04-29T16:47:34.046Z,78.50
2019-04-29T16:50:15.008Z,80.00
2019-04-29T16:52:46.561Z,80.40
2019-04-29T16:55:21.830Z,81.50
2019-04-29T16:58:06.474Z,82.40
2019-04-29T17:00:36.572Z,82.80
2019-04-29T17:03:10.438Z,84.70
2019-04-29T17:05:57.362Z,84.60
2019-04-29T17:08:35.468Z,85.20
2019-04-29T17:11:37.542Z,86.60
2019-04-29T17:14:17.104Z,87.60
2019-04-29T17:16:48.902Z,88.10
2019-04-29T17:19:30.457Z,90.10
2019-04-29T17:22:25.338Z,90.20
2019-04-29T17:24:47.986Z,91.10
2019-04-29T17:28:11.970Z,91.00
2019-04-29T17:31:33.053Z,91.50
2019-04-29T17:34:59.687Z,92.40
2019-04-29T17:37:32.203Z,92.40
2019-04-29T17:40:23.379Z,92.50
2019-04-29T17:43:12.190Z,93.10
2019-04-29T17:49:30.741Z,94.40
2019-04-29T17:52:17.902Z,94.00
2019-04-29T17:54:49.032Z,94.00
2019-04-29T17:57:39.594Z,94.30
2019-04-29T18:00:55.236Z,94.40
2019-04-29T18:03:41.602Z,95.10
2019-04-29T18:06:26.447Z,95.00
2019-04-29T18:09:18.312Z,95.70
2019-04-29T18:15:10.797Z,96.10
2019-04-29T18:17:56.045Z,96.70
2019-04-29T18:21:03.086Z,96.90
2019-04-29T18:23:59.758Z,97.30
2019-04-29T18:26:44.245Z,97.80
2019-04-29T18:36:45.770Z,98.80
2019-04-29T18:46:05.400Z,98.30
2019-04-29T18:46:37.833Z,99.70
2019-04-29T18:56:32.340Z,99.90
2019-04-29T18:59:10.074Z,99.90
2019-04-29T19:01:52.544Z,99.90
2019-04-29T19:05:03.823Z,99.90
2019-04-29T19:07:40.089Z,99.90
2019-04-29T19:10:32.150Z,99.90
2019-04-29T19:16:52.672Z,99.90
2019-04-29T19:19:30.649Z,99.90
2019-04-29T19:56:12.667Z,99.90
2019-04-29T20:02:10.437Z,99.90
2019-04-29T20:05:16.324Z,99.90
2019-04-29T20:07:49.598Z,99.90
2019-04-29T20:10:18.370Z,99.90
2019-04-29T20:12:52.991Z,99.90
2019-04-29T20:15:19.948Z,99.90
2019-04-29T20:18:14.938Z,99.90
2019-04-29T20:21:28.187Z,99.90
2019-04-29T20:23:53.402Z,99.90
2019-04-29T20:26:28.947Z,99.90
2019-04-29T20:28:55.683Z,99.90
2019-04-29T20:31:26.827Z,99.90
2019-04-29T20:33:58.652Z,99.90
2019-04-29T20:36:38.391Z,99.90
2019-04-29T20:38:58.903Z,99.90
2019-04-29T20:41:40.208Z,99.90
2019-04-29T20:44:05.741Z,99.90
2019-04-29T20:46:43.327Z,99.90
2019-04-29T20:49:08.823Z,99.90
2019-04-29T20:51:48.917Z,99.90
2019-04-29T20:54:19.384Z,99.90
2019-04-29T20:57:04.881Z,99.90
2019-04-29T20:59:41.895Z,99.90
2019-04-29T21:02:12.021Z,99.90
2019-04-29T21:04:45.878Z,99.90
2019-04-29T21:07:23.504Z,99.90
2019-04-29T21:09:59.839Z,99.90
2019-04-29T21:12:43.268Z,99.90
2019-04-29T21:15:19.726Z,99.90
2019-04-29T21:17:55.620Z,99.90
2019-04-29T21:20:28.560Z,99.90
2019-04-29T21:23:01.049Z,99.90
2019-04-29T21:25:37.158Z,99.90
2019-04-29T21:28:13.194Z,99.90
2019-04-29T21:30:46.845Z,99.90
2019-04-29T21:33:20.970Z,99.90
2019-04-29T21:36:06.567Z,99.90
2019-04-29T21:38:55.732Z,99.90
2019-04-29T21:41:38.684Z,99.90
2019-04-29T21:44:08.292Z,99.90
2019-04-29T21:46:38.080Z,99.90
2019-04-29T21:49:15.662Z,99.90
2019-04-29T21:51:46.570Z,99.90
2019-04-29T21:54:17.025Z,99.90
2019-04-29T21:56:52.804Z,99.90
2019-04-29T21:59:25.754Z,99.90
2019-04-29T22:01:59.697Z,99.90
2019-04-29T22:04:32.782Z,99.90
2019-04-29T22:07:08.906Z,99.90
2019-04-29T22:09:40.580Z,99.90
2019-04-29T22:12:14.182Z,99.90
2019-04-29T22:14:54.110Z,99.90
2019-04-29T22:17:34.320Z,99.90
2019-04-29T22:20:56.015Z,99.90
2019-04-29T22:22:42.875Z,99.90
2019-04-29T22:25:17.148Z,99.90
2019-04-29T22:27:46.801Z,99.90
2019-04-29T22:30:18.747Z,99.90
2019-04-29T22:32:58.144Z,99.90
2019-04-29T22:35:32.336Z,99.90
2019-04-29T22:38:01.005Z,99.90
2019-04-29T22:40:34.217Z,99.90
2019-04-29T22:43:29.532Z,99.90
2019-04-29T22:46:04.722Z,99.90
2019-04-29T22:48:36.433Z,99.90
2019-04-29T22:51:10.048Z,99.90
2019-04-29T22:53:47.954Z,99.90
2019-04-29T22:56:19.194Z,99.90
2019-04-29T22:58:55.985Z,99.90
2019-04-29T23:01:28.772Z,99.90
2019-04-29T23:04:09.752Z,99.90
2019-04-29T23:06:39.803Z,99.90
2019-04-29T23:09:12.085Z,99.90
2019-04-29T23:11:47.442Z,99.90
2019-04-29T23:14:16.678Z,99.90
2019-04-29T23:16:58.960Z,99.90
2019-04-29T23:19:30.108Z,99.90
2019-04-29T23:22:31.085Z,99.90
2019-04-29T23:25:09.436Z,99.90
2019-04-29T23:27:48.415Z,99.90
2019-04-29T23:30:21.522Z,99.90
2019-04-29T23:32:56.095Z,99.90
2019-04-29T23:35:28.558Z,99.90
2019-04-29T23:38:04.440Z,99.90
2019-04-29T23:40:32.762Z,99.90
2019-04-29T23:43:07.330Z,99.90
2019-04-29T23:45:40.136Z,99.90
2019-04-29T23:48:12.177Z,99.90
2019-04-29T23:50:49.707Z,99.90
2019-04-29T23:53:25.147Z,99.90
2019-04-29T23:56:00.042Z,99.90
2019-04-29T23:58:46.744Z,99.90
